createdAt,value
2018-11-21T00:00:20.993Z,45.80
2018-11-21T00:02:50.954Z,65.37
2018-11-21T00:05:20.336Z,57.40
2018-11-21T00:07:51.137Z,52.97
2018-11-21T00:10:21.227Z,52.77
2018-11-21T00:12:54.274Z,46.70
2018-11-21T00:15:25.288Z,53.30
2018-11-21T00:17:58.387Z,52.87
2018-11-21T00:20:31.909Z,54.60
2018-11-21T00:23:17.023Z,53.47
2018-11-21T00:25:57.705Z,53.53
2018-11-21T00:28:48.350Z,49.47
2018-11-21T00:31:15.572Z,44.93
2018-11-21T00:33:52.126Z,51.40
2018-11-21T00:36:24.531Z,56.90
2018-11-21T00:38:56.667Z,53.40
2018-11-21T00:41:28.074Z,52.03
2018-11-21T00:44:08.880Z,57.53
2018-11-21T00:46:39.203Z,55.63
2018-11-21T00:49:09.627Z,48.33
2018-11-21T00:51:44.608Z,55.77
2018-11-21T00:54:15.289Z,49.17
2018-11-21T00:56:46.992Z,42.53
2018-11-21T00:59:18.528Z,54.80
2018-11-21T01:04:37.221Z,51.90
2018-11-21T01:07:09.471Z,51.53
2018-11-21T01:09:43.674Z,48.17
2018-11-21T01:12:15.001Z,54.67
2018-11-21T01:14:46.858Z,55.60
2018-11-21T01:17:18.281Z,61.00
2018-11-21T01:19:54.749Z,59.63
2018-11-21T01:23:02.652Z,53.90
2018-11-21T01:25:39.812Z,54.53
2018-11-21T01:28:10.210Z,49.80
2018-11-21T01:30:41.000Z,52.50
2018-11-21T01:33:11.269Z,52.80
2018-11-21T01:35:51.601Z,57.30
2018-11-21T01:38:23.350Z,52.03
2018-11-21T01:40:55.185Z,40.83
2018-11-21T01:43:26.637Z,55.50
2018-11-21T01:45:57.060Z,52.57
2018-11-21T01:48:26.333Z,55.20
2018-11-21T01:50:56.794Z,53.70
2018-11-21T01:53:27.595Z,54.83
2018-11-21T01:55:58.559Z,48.53
2018-11-21T01:58:28.462Z,44.57
2018-11-21T02:00:58.386Z,53.50
2018-11-21T02:03:28.320Z,57.07
2018-11-21T02:05:58.282Z,50.70
2018-11-21T02:08:28.249Z,62.63
2018-11-21T02:10:59.161Z,57.13
2018-11-21T02:13:29.005Z,53.60
2018-11-21T02:15:59.344Z,47.67
2018-11-21T02:18:29.533Z,52.93
2018-11-21T02:20:59.430Z,53.97
2018-11-21T02:23:29.999Z,38.80
2018-11-21T02:26:01.297Z,52.00
2018-11-21T02:28:31.231Z,24.93
2018-11-21T02:31:01.710Z,51.87
2018-11-21T02:33:32.639Z,52.47
2018-11-21T02:36:03.057Z,54.27
2018-11-21T02:38:35.843Z,55.13
2018-11-21T02:41:03.845Z,48.43
2018-11-21T02:43:35.233Z,50.37
2018-11-21T02:46:05.529Z,48.17
2018-11-21T02:48:37.094Z,53.00
2018-11-21T02:51:08.175Z,53.83
2018-11-21T02:53:40.079Z,32.40
2018-11-21T02:56:10.877Z,55.53
2018-11-21T02:58:40.894Z,50.70
2018-11-21T03:01:11.966Z,47.20
2018-11-21T03:03:42.567Z,48.27
2018-11-21T03:06:13.094Z,53.77
2018-11-21T03:09:03.208Z,56.43
2018-11-21T03:12:05.850Z,55.70
2018-11-21T03:14:37.040Z,55.33
2018-11-21T03:17:08.181Z,51.70
2018-11-21T03:19:39.666Z,59.53
2018-11-21T03:22:10.075Z,51.63
2018-11-21T03:24:40.078Z,47.27
2018-11-21T03:27:10.013Z,53.50
2018-11-21T03:29:40.089Z,51.47
2018-11-21T03:32:10.502Z,51.77
2018-11-21T03:34:41.824Z,54.57
2018-11-21T03:37:12.748Z,54.57
2018-11-21T03:39:43.705Z,49.10
2018-11-21T03:42:13.996Z,36.60
2018-11-21T03:44:49.509Z,42.90
2018-11-21T03:47:21.302Z,52.20
2018-11-21T03:49:52.258Z,53.90
2018-11-21T03:52:26.529Z,57.47
2018-11-21T03:54:57.752Z,50.03
2018-11-21T03:57:28.890Z,50.17
2018-11-21T04:00:02.388Z,58.50
2018-11-21T04:02:32.555Z,56.83
2018-11-21T04:05:11.916Z,49.93
2018-11-21T04:07:45.857Z,50.67
2018-11-21T04:10:16.334Z,58.17
2018-11-21T04:12:48.970Z,55.73
2018-11-21T04:15:23.314Z,59.07
2018-11-21T04:17:54.098Z,38.10
2018-11-21T04:20:26.310Z,54.70
2018-11-21T04:23:02.779Z,62.17
2018-11-21T04:25:42.447Z,31.20
2018-11-21T04:28:11.791Z,55.17
2018-11-21T04:30:46.643Z,53.33
2018-11-21T04:33:18.632Z,58.17
2018-11-21T04:35:57.732Z,61.27
2018-11-21T04:38:29.805Z,52.77
2018-11-21T04:41:00.977Z,60.53
2018-11-21T04:43:34.148Z,56.63
2018-11-21T04:46:06.974Z,60.53
2018-11-21T04:48:37.821Z,62.23
2018-11-21T04:51:09.292Z,51.17
2018-11-21T04:53:43.123Z,56.93
2018-11-21T04:56:20.273Z,45.87
2018-11-21T04:59:01.029Z,53.80
2018-11-21T05:01:32.820Z,61.87
2018-11-21T05:04:04.860Z,69.07
2018-11-21T05:06:35.814Z,57.43
2018-11-21T05:09:15.328Z,58.70
2018-11-21T05:11:48.156Z,53.83
2018-11-21T05:14:18.704Z,62.90
2018-11-21T05:16:50.729Z,61.67
2018-11-21T05:19:22.454Z,60.93
2018-11-21T05:21:55.363Z,64.03
2018-11-21T05:24:31.205Z,60.93
2018-11-21T05:27:03.515Z,65.00
2018-11-21T05:29:38.984Z,55.20
2018-11-21T05:32:17.801Z,55.50
2018-11-21T05:34:46.933Z,60.60
2018-11-21T05:37:18.166Z,64.60
2018-11-21T05:39:51.717Z,65.93
2018-11-21T05:42:23.074Z,54.50
2018-11-21T05:44:55.222Z,54.43
2018-11-21T05:47:28.759Z,63.17
2018-11-21T05:50:07.844Z,65.77
2018-11-21T05:53:01.493Z,66.07
2018-11-21T05:55:31.636Z,64.37
2018-11-21T05:58:03.396Z,69.33
2018-11-21T06:00:32.801Z,71.03
2018-11-21T06:03:09.037Z,72.50
2018-11-21T06:05:43.296Z,68.23
2018-11-21T06:08:13.608Z,68.23
2018-11-21T06:10:43.262Z,58.67
2018-11-21T06:13:13.006Z,61.03
2018-11-21T06:15:43.567Z,63.10
2018-11-21T06:18:13.811Z,69.27
2018-11-21T06:20:50.344Z,65.17
2018-11-21T06:23:22.303Z,61.33
2018-11-21T06:25:58.897Z,52.37
2018-11-21T06:28:35.307Z,74.33
2018-11-21T06:31:07.099Z,46.50
2018-11-21T06:33:38.745Z,78.00
2018-11-21T06:36:11.928Z,66.23
2018-11-21T06:38:41.364Z,72.37
2018-11-21T06:41:17.226Z,66.87
2018-11-21T06:43:50.474Z,71.63
2018-11-21T06:46:19.097Z,68.40
2018-11-21T06:48:51.900Z,65.77
2018-11-21T06:51:27.255Z,53.30
2018-11-21T06:54:00.507Z,42.53
2018-11-21T06:56:36.141Z,63.67
2018-11-21T06:59:03.583Z,68.67
2018-11-21T07:01:33.355Z,64.87
2018-11-21T07:04:11.794Z,62.77
2018-11-21T07:06:42.916Z,71.57
2018-11-21T07:09:14.449Z,52.30
2018-11-21T07:11:47.367Z,67.10
2018-11-21T07:14:20.839Z,59.50
2018-11-21T07:16:52.785Z,48.30
2018-11-21T07:19:29.048Z,62.43
2018-11-21T07:22:03.077Z,63.83
2018-11-21T07:24:34.325Z,70.10
2018-11-21T07:27:05.649Z,71.43
2018-11-21T07:30:00.267Z,72.77
2018-11-21T07:32:31.302Z,72.47
2018-11-21T07:35:27.057Z,70.67
2018-11-21T07:38:04.727Z,67.70
2018-11-21T07:40:35.919Z,75.83
2018-11-21T07:43:06.781Z,78.03
2018-11-21T07:45:37.898Z,71.70
2018-11-21T07:48:08.848Z,72.27
2018-11-21T07:50:39.917Z,71.67
2018-11-21T07:53:10.452Z,67.73
2018-11-21T07:55:41.944Z,65.13
2018-11-21T07:58:14.358Z,71.87
2018-11-21T08:01:18.212Z,70.70
2018-11-21T08:04:13.090Z,60.67
2018-11-21T08:07:02.757Z,65.60
2018-11-21T08:09:54.387Z,59.40
2018-11-21T08:12:54.240Z,59.27
2018-11-21T08:15:54.339Z,75.10
2018-11-21T08:18:54.622Z,71.73
2018-11-21T08:21:53.938Z,66.27
2018-11-21T08:24:43.320Z,68.83
2018-11-21T08:27:39.399Z,61.47
2018-11-21T08:30:12.431Z,57.47
2018-11-21T08:32:52.320Z,67.47
2018-11-21T08:35:26.987Z,57.77
2018-11-21T08:38:00.322Z,67.63
2018-11-21T08:40:31.550Z,74.67
2018-11-21T08:43:46.372Z,60.20
2018-11-21T08:46:19.848Z,72.73
2018-11-21T08:48:56.140Z,67.13
2018-11-21T08:51:31.719Z,75.87
2018-11-21T08:54:08.894Z,64.70
2018-11-21T08:56:54.291Z,72.50
2018-11-21T08:59:29.414Z,72.47
2018-11-21T09:02:12.342Z,74.83
2018-11-21T09:04:50.671Z,74.30
2018-11-21T09:07:33.111Z,62.37
2018-11-21T09:10:01.656Z,70.23
2018-11-21T09:12:32.040Z,71.37
2018-11-21T09:15:03.558Z,59.20
2018-11-21T09:17:33.955Z,72.77
2018-11-21T09:20:04.206Z,68.07
2018-11-21T09:22:36.293Z,67.63
2018-11-21T09:25:07.395Z,78.10
2018-11-21T09:27:37.769Z,74.70
2018-11-21T09:30:14.777Z,56.97
2018-11-21T09:32:54.513Z,55.47
2018-11-21T09:35:57.557Z,53.57
2018-11-21T09:38:35.579Z,59.37
2018-11-21T09:41:21.429Z,52.77
2018-11-21T09:47:00.493Z,62.47
2018-11-21T09:49:50.242Z,74.60
2018-11-21T09:52:39.165Z,69.87
2018-11-21T09:58:09.425Z,71.00
2018-11-21T10:01:35.739Z,62.97
2018-11-21T10:04:18.987Z,60.03
2018-11-21T10:06:57.468Z,64.90
2018-11-21T10:09:43.533Z,60.23
2018-11-21T10:12:38.515Z,60.30
2018-11-21T10:15:28.546Z,46.10
2018-11-21T10:17:56.459Z,57.77
2018-11-21T10:20:52.585Z,49.43
2018-11-21T10:24:27.126Z,62.00
2018-11-21T10:29:54.266Z,76.33
2018-11-21T10:32:25.554Z,49.03
2018-11-21T10:35:17.596Z,50.37
2018-11-21T10:45:04.889Z,46.93
2018-11-21T10:47:50.039Z,54.47
2018-11-21T10:52:13.381Z,65.40
2018-11-21T10:53:45.473Z,54.80
2018-11-21T10:56:13.572Z,64.00
2018-11-21T10:59:04.525Z,58.83
2018-11-21T11:02:21.574Z,58.97
2018-11-21T11:05:48.905Z,56.10
2018-11-21T11:08:45.568Z,62.20
2018-11-21T11:12:15.761Z,66.47
2018-11-21T11:15:11.638Z,67.40
2018-11-21T11:18:26.539Z,68.53
2018-11-21T11:21:53.127Z,71.83
2018-11-21T11:25:01.398Z,55.77
2018-11-21T11:31:17.523Z,61.97
2018-11-21T11:34:05.988Z,57.37
2018-11-21T11:37:20.808Z,46.33
2018-11-21T11:40:12.897Z,65.07
2018-11-21T11:43:23.480Z,75.50
2018-11-21T11:46:34.242Z,64.40
2018-11-21T11:49:28.829Z,62.60
2018-11-21T11:52:28.249Z,67.57
2018-11-21T11:55:33.469Z,67.47
2018-11-21T11:58:29.666Z,48.40
2018-11-21T12:01:44.293Z,59.30
2018-11-21T12:04:44.462Z,77.13
2018-11-21T12:07:53.981Z,66.60
2018-11-21T12:10:41.350Z,73.70
2018-11-21T12:14:07.147Z,62.30
2018-11-21T12:17:06.808Z,69.10
2018-11-21T12:20:06.521Z,76.70
2018-11-21T12:23:12.293Z,70.03
2018-11-21T12:26:21.915Z,53.20
2018-11-21T12:29:28.239Z,68.43
2018-11-21T12:32:33.396Z,73.90
2018-11-21T12:35:42.722Z,57.67
2018-11-21T12:41:16.696Z,46.90
2018-11-21T12:44:11.781Z,79.30
2018-11-21T12:47:08.176Z,61.20
2018-11-21T12:50:05.888Z,56.60
2018-11-21T12:53:32.035Z,64.27
2018-11-21T12:56:58.094Z,78.70
2018-11-21T13:00:24.756Z,73.70
2018-11-21T13:03:32.285Z,76.23
2018-11-21T13:06:59.811Z,67.07
2018-11-21T13:09:32.307Z,75.33
2018-11-21T13:12:31.077Z,49.63
2018-11-21T13:15:43.223Z,71.53
2018-11-21T13:18:33.923Z,68.57
2018-11-21T13:21:35.801Z,75.47
2018-11-21T13:24:27.964Z,65.63
2018-11-21T13:28:00.563Z,52.63
2018-11-21T13:30:53.455Z,64.57
2018-11-21T13:34:00.294Z,45.47
2018-11-21T13:36:57.818Z,67.70
2018-11-21T13:39:49.782Z,49.80
2018-11-21T13:42:58.595Z,67.20
2018-11-21T13:46:11.882Z,55.13
2018-11-21T13:49:00.385Z,57.60
2018-11-21T13:52:16.159Z,53.33
2018-11-21T13:54:58.868Z,70.37
2018-11-21T13:57:53.006Z,57.47
2018-11-21T14:00:31.005Z,66.50
2018-11-21T14:03:14.823Z,60.83
2018-11-21T14:07:29.672Z,69.73
2018-11-21T14:10:07.827Z,70.10
2018-11-21T14:13:10.215Z,69.67
2018-11-21T14:15:53.569Z,75.37
2018-11-21T14:18:39.576Z,69.77
2018-11-21T14:21:07.456Z,58.10
2018-11-21T14:23:45.182Z,49.63
2018-11-21T14:26:19.774Z,69.73
2018-11-21T14:28:54.865Z,65.20
2018-11-21T14:31:28.661Z,68.70
2018-11-21T14:34:27.165Z,78.47
2018-11-21T14:37:11.766Z,75.77
2018-11-21T14:39:53.469Z,69.20
2018-11-21T14:42:29.857Z,73.77
2018-11-21T14:45:07.718Z,72.50
2018-11-21T14:47:41.397Z,77.03
2018-11-21T14:50:22.478Z,71.33
2018-11-21T14:55:55.268Z,59.87
2018-11-21T14:58:26.236Z,79.63
2018-11-21T15:00:58.684Z,75.13
2018-11-21T15:03:29.242Z,53.07
2018-11-21T15:05:58.739Z,67.30
2018-11-21T15:08:36.062Z,52.87
2018-11-21T15:11:06.430Z,67.90
2018-11-21T15:13:36.594Z,62.77
2018-11-21T15:16:06.743Z,70.60
2018-11-21T15:18:36.658Z,52.40
2018-11-21T15:21:16.289Z,61.60
2018-11-21T15:23:40.285Z,46.10
2018-11-21T15:26:09.759Z,40.30
2018-11-21T15:28:42.987Z,68.93
2018-11-21T15:31:15.814Z,68.63
2018-11-21T15:33:45.735Z,66.63
2018-11-21T15:36:16.063Z,69.83
2018-11-21T15:38:45.523Z,54.67
2018-11-21T15:41:15.409Z,45.50
2018-11-21T15:43:45.271Z,65.70
2018-11-21T15:46:15.461Z,62.00
2018-11-21T15:48:45.325Z,57.30
2018-11-21T15:51:15.238Z,66.87
2018-11-21T15:53:47.691Z,66.87
2018-11-21T15:56:18.515Z,65.83
2018-11-21T15:58:49.520Z,68.83
2018-11-21T16:01:19.304Z,64.37
2018-11-21T16:03:50.331Z,63.23
2018-11-21T16:06:24.631Z,57.67
2018-11-21T16:09:01.918Z,60.77
2018-11-21T16:11:32.467Z,72.53
2018-11-21T16:14:02.253Z,68.40
2018-11-21T16:16:32.932Z,69.10
2018-11-21T16:19:03.685Z,65.83
2018-11-21T16:21:34.010Z,68.30
2018-11-21T16:24:40.328Z,71.40
2018-11-21T16:27:10.188Z,59.83
2018-11-21T16:29:40.348Z,61.67
2018-11-21T16:32:10.927Z,61.90
2018-11-21T16:34:40.703Z,65.80
2018-11-21T16:37:11.107Z,60.97
2018-11-21T16:39:42.279Z,63.23
2018-11-21T16:42:12.036Z,59.00
2018-11-21T16:44:41.873Z,51.63
2018-11-21T16:47:11.741Z,53.23
2018-11-21T16:49:41.829Z,49.80
2018-11-21T16:52:12.830Z,57.00
2018-11-21T16:54:43.014Z,55.40
2018-11-21T16:57:13.548Z,59.17
2018-11-21T16:59:43.772Z,54.87
2018-11-21T17:02:13.311Z,51.97
2018-11-21T17:04:43.529Z,63.67
2018-11-21T17:07:13.438Z,62.87
2018-11-21T17:09:47.209Z,65.70
2018-11-21T17:12:17.600Z,57.77
2018-11-21T17:14:47.609Z,52.33
2018-11-21T17:17:17.024Z,51.57
2018-11-21T17:19:46.520Z,63.17
2018-11-21T17:22:16.037Z,62.20
2018-11-21T17:24:46.549Z,43.33
2018-11-21T17:27:18.026Z,64.53
2018-11-21T17:29:53.747Z,57.40
2018-11-21T17:32:18.603Z,55.07
2018-11-21T17:34:48.336Z,56.87
2018-11-21T17:37:19.350Z,62.07
2018-11-21T17:39:51.166Z,58.13
2018-11-21T17:42:23.948Z,57.63
2018-11-21T17:44:53.747Z,59.10
2018-11-21T17:47:23.821Z,44.37
2018-11-21T17:49:54.076Z,56.00
2018-11-21T17:52:23.922Z,50.20
2018-11-21T17:54:54.089Z,39.43
2018-11-21T17:57:27.952Z,56.20
2018-11-21T17:59:54.873Z,59.10
2018-11-21T18:02:25.367Z,54.43
2018-11-21T18:04:55.561Z,37.87
2018-11-21T18:07:26.137Z,35.43
2018-11-21T18:09:56.350Z,54.30
2018-11-21T18:12:29.136Z,49.70
2018-11-21T18:15:01.372Z,51.97
2018-11-21T18:17:31.229Z,58.67
2018-11-21T18:20:01.483Z,45.00
2018-11-21T18:22:31.448Z,52.90
2018-11-21T18:25:02.299Z,56.17
2018-11-21T18:27:36.013Z,47.67
2018-11-21T18:30:09.448Z,52.63
2018-11-21T18:32:39.690Z,37.53
2018-11-21T18:35:16.878Z,50.67
2018-11-21T18:37:50.534Z,37.30
2018-11-21T18:40:23.136Z,51.60
2018-11-21T18:42:55.392Z,28.67
2018-11-21T18:45:32.365Z,49.93
2018-11-21T18:48:03.130Z,52.37
2018-11-21T18:50:33.294Z,49.33
2018-11-21T18:53:05.132Z,47.07
2018-11-21T18:55:37.459Z,48.50
2018-11-21T18:58:57.689Z,54.83
2018-11-21T19:01:27.725Z,45.00
2018-11-21T19:03:58.088Z,46.73
2018-11-21T19:06:27.943Z,48.10
2018-11-21T19:08:58.267Z,43.47
2018-11-21T19:11:28.720Z,35.53
2018-11-21T19:13:58.986Z,46.43
2018-11-21T19:16:28.787Z,52.07
2018-11-21T19:18:58.638Z,50.63
2018-11-21T19:21:28.125Z,46.27
2018-11-21T19:23:58.714Z,30.77
2018-11-21T19:26:28.112Z,45.83
2018-11-21T19:28:57.841Z,42.87
2018-11-21T19:31:29.779Z,46.13
2018-11-21T19:33:57.697Z,48.40
2018-11-21T19:36:28.141Z,44.90
2018-11-21T19:38:58.418Z,46.87
2018-11-21T19:41:29.217Z,47.87
2018-11-21T19:44:00.390Z,58.53
2018-11-21T19:46:30.662Z,49.73
2018-11-21T19:49:00.111Z,50.53
2018-11-21T19:51:30.092Z,56.13
2018-11-21T19:54:00.043Z,47.90
2018-11-21T19:56:29.650Z,58.57
2018-11-21T19:58:59.977Z,46.30
2018-11-21T20:01:29.847Z,52.27
2018-11-21T20:04:00.600Z,62.90
2018-11-21T20:06:30.147Z,62.30
2018-11-21T20:09:00.074Z,58.97
2018-11-21T20:11:30.331Z,70.87
2018-11-21T20:14:00.189Z,62.33
2018-11-21T20:16:30.068Z,62.40
2018-11-21T20:18:59.891Z,66.43
2018-11-21T20:21:30.234Z,45.77
2018-11-21T20:23:59.618Z,69.30
2018-11-21T20:26:29.499Z,65.97
2018-11-21T20:29:00.830Z,69.10
2018-11-21T20:31:30.634Z,47.30
2018-11-21T20:34:01.462Z,66.87
2018-11-21T20:36:34.238Z,69.33
2018-11-21T20:39:04.540Z,78.30
2018-11-21T20:41:35.386Z,57.27
2018-11-21T20:44:06.132Z,69.20
2018-11-21T20:46:36.615Z,71.73
2018-11-21T20:49:11.286Z,64.83
2018-11-21T20:51:37.013Z,50.30
2018-11-21T20:54:06.505Z,71.10
2018-11-21T20:56:36.785Z,56.80
2018-11-21T20:59:06.817Z,71.83
2018-11-21T21:01:36.902Z,80.50
2018-11-21T21:04:07.287Z,74.70
2018-11-21T21:06:37.646Z,68.03
2018-11-21T21:09:12.816Z,71.73
2018-11-21T21:11:43.350Z,85.27
2018-11-21T21:14:12.765Z,78.90
2018-11-21T21:16:42.584Z,68.13
2018-11-21T21:19:12.383Z,68.37
2018-11-21T21:21:42.663Z,60.83
2018-11-21T21:24:12.933Z,73.87
2018-11-21T21:26:42.787Z,77.40
2018-11-21T21:29:12.761Z,54.67
2018-11-21T21:32:01.487Z,81.13
2018-11-21T21:34:31.465Z,85.47
2018-11-21T21:37:01.696Z,65.73
2018-11-21T21:39:31.675Z,97.43
2018-11-21T21:42:01.474Z,102.80
2018-11-21T21:44:31.780Z,96.83
2018-11-21T21:47:01.256Z,87.87
2018-11-21T21:49:31.174Z,75.80
2018-11-21T21:52:01.224Z,96.60
2018-11-21T21:54:31.459Z,69.10
2018-11-21T21:57:04.005Z,76.70
2018-11-21T21:59:32.105Z,82.17
2018-11-21T22:02:02.488Z,79.97
2018-11-21T22:04:33.094Z,90.53
2018-11-21T22:07:02.582Z,89.73
2018-11-21T22:09:33.627Z,92.83
2018-11-21T22:12:06.731Z,110.60
2018-11-21T22:14:36.299Z,97.33
2018-11-21T22:17:06.046Z,90.73
2018-11-21T22:19:35.895Z,62.57
2018-11-21T22:22:06.818Z,110.40
2018-11-21T22:24:38.229Z,102.17
2018-11-21T22:27:08.517Z,87.97
2018-11-21T22:29:39.024Z,113.93
2018-11-21T22:32:10.037Z,112.97
2018-11-21T22:34:39.994Z,120.33
2018-11-21T22:37:09.546Z,84.50
2018-11-21T22:39:40.046Z,119.87
2018-11-21T22:42:11.286Z,129.30
2018-11-21T22:44:43.470Z,141.13
2018-11-21T22:47:12.904Z,88.57
2018-11-21T22:49:51.007Z,88.73
2018-11-21T22:52:22.800Z,98.07
2018-11-21T22:54:52.686Z,91.87
2018-11-21T22:57:25.059Z,126.20
2018-11-21T23:00:02.925Z,116.00
2018-11-21T23:02:38.002Z,92.90
2018-11-21T23:05:09.733Z,108.97
2018-11-21T23:07:41.261Z,99.80
2018-11-21T23:10:13.402Z,111.23
2018-11-21T23:12:45.461Z,109.00
2018-11-21T23:15:15.649Z,136.37
2018-11-21T23:17:49.579Z,124.47
2018-11-21T23:20:20.315Z,98.03
2018-11-21T23:22:51.364Z,92.23
2018-11-21T23:25:21.557Z,136.57
2018-11-21T23:27:52.257Z,130.00
2018-11-21T23:30:21.754Z,84.67
2018-11-21T23:32:53.036Z,92.80
2018-11-21T23:35:25.576Z,127.90
2018-11-21T23:37:55.855Z,149.73
2018-11-21T23:40:25.760Z,122.20
2018-11-21T23:42:56.608Z,137.27
2018-11-21T23:45:26.745Z,119.57
2018-11-21T23:47:56.890Z,133.60
2018-11-21T23:50:26.784Z,142.00
2018-11-21T23:52:57.330Z,158.93
2018-11-21T23:55:27.875Z,139.63
2018-11-21T23:57:58.066Z,122.40
